sensor_id;sensor_type;location;lat;lon;timestamp;P1;durP1;ratioP1;P2;durP2;ratioP2
4084;SDS011;2057;50.858;6.572;2022-07-29T00:00:40;13.17;;;2.63;;
4084;SDS011;2057;50.858;6.572;2022-07-29T00:03:09;8.63;;;2.80;;
4084;SDS011;2057;50.858;6.572;2022-07-29T00:05:35;6.07;;;2.47;;
4084;SDS011;2057;50.858;6.572;2022-07-29T00:08:00;7.93;;;2.40;;
4084;SDS011;2057;50.858;6.572;2022-07-29T00:10:25;10.93;;;1.87;;
4084;SDS011;2057;50.858;6.572;2022-07-29T00:12:51;15.40;;;2.43;;
4084;SDS011;2057;50.858;6.572;2022-07-29T00:15:16;10.63;;;2.70;;
4084;SDS011;2057;50.858;6.572;2022-07-29T00:17:41;6.80;;;2.70;;
4084;SDS011;2057;50.858;6.572;2022-07-29T00:20:07;7.03;;;2.47;;
4084;SDS011;2057;50.858;6.572;2022-07-29T00:22:33;10.23;;;2.60;;
4084;SDS011;2057;50.858;6.572;2022-07-29T00:25:02;9.33;;;2.47;;
4084;SDS011;2057;50.858;6.572;2022-07-29T00:27:28;7.80;;;2.47;;
4084;SDS011;2057;50.858;6.572;2022-07-29T00:29:53;11.50;;;2.60;;
4084;SDS011;2057;50.858;6.572;2022-07-29T00:32:18;15.10;;;2.57;;
4084;SDS011;2057;50.858;6.572;2022-07-29T00:34:43;13.70;;;3.23;;
4084;SDS011;2057;50.858;6.572;2022-07-29T00:37:27;17.03;;;3.10;;
4084;SDS011;2057;50.858;6.572;2022-07-29T00:39:53;6.60;;;2.30;;
4084;SDS011;2057;50.858;6.572;2022-07-29T00:42:19;14.10;;;2.80;;
4084;SDS011;2057;50.858;6.572;2022-07-29T00:44:44;12.77;;;3.00;;
4084;SDS011;2057;50.858;6.572;2022-07-29T00:47:11;8.27;;;2.33;;
4084;SDS011;2057;50.858;6.572;2022-07-29T00:49:37;25.10;;;2.33;;
4084;SDS011;2057;50.858;6.572;2022-07-29T00:52:04;27.37;;;3.23;;
4084;SDS011;2057;50.858;6.572;2022-07-29T00:54:30;9.57;;;2.27;;
4084;SDS011;2057;50.858;6.572;2022-07-29T00:57:00;14.37;;;3.20;;
4084;SDS011;2057;50.858;6.572;2022-07-29T00:59:27;15.40;;;2.87;;
4084;SDS011;2057;50.858;6.572;2022-07-29T01:01:53;11.50;;;2.40;;
4084;SDS011;2057;50.858;6.572;2022-07-29T01:04:19;24.00;;;3.20;;
4084;SDS011;2057;50.858;6.572;2022-07-29T01:06:48;19.40;;;2.90;;
4084;SDS011;2057;50.858;6.572;2022-07-29T01:09:14;10.00;;;2.30;;
4084;SDS011;2057;50.858;6.572;2022-07-29T01:11:40;12.23;;;2.53;;
4084;SDS011;2057;50.858;6.572;2022-07-29T01:14:08;7.93;;;2.70;;
4084;SDS011;2057;50.858;6.572;2022-07-29T01:16:57;9.73;;;3.07;;
4084;SDS011;2057;50.858;6.572;2022-07-29T01:22:25;9.10;;;2.03;;
4084;SDS011;2057;50.858;6.572;2022-07-29T01:30:22;12.27;;;2.37;;
4084;SDS011;2057;50.858;6.572;2022-07-29T01:32:50;17.73;;;3.33;;
4084;SDS011;2057;50.858;6.572;2022-07-29T01:35:23;21.23;;;3.83;;
4084;SDS011;2057;50.858;6.572;2022-07-29T01:38:09;23.67;;;3.27;;
4084;SDS011;2057;50.858;6.572;2022-07-29T01:40:49;14.93;;;2.83;;
4084;SDS011;2057;50.858;6.572;2022-07-29T01:43:21;23.27;;;4.50;;
4084;SDS011;2057;50.858;6.572;2022-07-29T01:45:56;13.77;;;3.60;;
4084;SDS011;2057;50.858;6.572;2022-07-29T01:51:07;16.63;;;2.50;;
4084;SDS011;2057;50.858;6.572;2022-07-29T01:53:42;15.93;;;2.47;;
4084;SDS011;2057;50.858;6.572;2022-07-29T01:56:12;15.10;;;2.87;;
4084;SDS011;2057;50.858;6.572;2022-07-29T01:58:40;6.10;;;2.83;;
4084;SDS011;2057;50.858;6.572;2022-07-29T02:01:08;19.47;;;2.63;;
4084;SDS011;2057;50.858;6.572;2022-07-29T02:03:36;13.27;;;3.17;;
4084;SDS011;2057;50.858;6.572;2022-07-29T02:06:03;30.23;;;4.07;;
4084;SDS011;2057;50.858;6.572;2022-07-29T02:08:30;13.47;;;3.47;;
4084;SDS011;2057;50.858;6.572;2022-07-29T02:10:57;18.67;;;3.63;;
4084;SDS011;2057;50.858;6.572;2022-07-29T02:13:25;24.73;;;3.43;;
4084;SDS011;2057;50.858;6.572;2022-07-29T02:15:53;24.33;;;3.57;;
4084;SDS011;2057;50.858;6.572;2022-07-29T02:18:22;38.83;;;4.23;;
4084;SDS011;2057;50.858;6.572;2022-07-29T02:20:51;17.00;;;3.60;;
4084;SDS011;2057;50.858;6.572;2022-07-29T02:23:20;24.43;;;3.47;;
4084;SDS011;2057;50.858;6.572;2022-07-29T02:25:55;33.30;;;3.53;;
4084;SDS011;2057;50.858;6.572;2022-07-29T02:28:24;21.57;;;4.10;;
4084;SDS011;2057;50.858;6.572;2022-07-29T02:30:53;26.80;;;4.30;;
4084;SDS011;2057;50.858;6.572;2022-07-29T02:33:22;28.93;;;4.40;;
4084;SDS011;2057;50.858;6.572;2022-07-29T02:35:50;34.63;;;4.50;;
4084;SDS011;2057;50.858;6.572;2022-07-29T02:38:18;34.87;;;5.03;;
4084;SDS011;2057;50.858;6.572;2022-07-29T02:41:04;22.53;;;4.40;;
4084;SDS011;2057;50.858;6.572;2022-07-29T02:43:33;18.23;;;3.30;;
4084;SDS011;2057;50.858;6.572;2022-07-29T02:46:00;22.70;;;5.40;;
4084;SDS011;2057;50.858;6.572;2022-07-29T02:48:34;15.37;;;3.33;;
4084;SDS011;2057;50.858;6.572;2022-07-29T02:51:11;33.53;;;4.57;;
4084;SDS011;2057;50.858;6.572;2022-07-29T02:53:41;13.40;;;3.20;;
4084;SDS011;2057;50.858;6.572;2022-07-29T02:56:13;22.07;;;2.57;;
4084;SDS011;2057;50.858;6.572;2022-07-29T02:58:45;18.23;;;3.50;;
4084;SDS011;2057;50.858;6.572;2022-07-29T03:01:24;13.40;;;2.93;;
4084;SDS011;2057;50.858;6.572;2022-07-29T03:03:54;8.53;;;3.37;;
4084;SDS011;2057;50.858;6.572;2022-07-29T03:06:21;12.90;;;2.97;;
4084;SDS011;2057;50.858;6.572;2022-07-29T03:08:48;19.23;;;2.73;;
4084;SDS011;2057;50.858;6.572;2022-07-29T03:11:15;17.63;;;3.10;;
4084;SDS011;2057;50.858;6.572;2022-07-29T03:13:42;21.53;;;3.17;;
4084;SDS011;2057;50.858;6.572;2022-07-29T03:16:09;15.77;;;2.90;;
4084;SDS011;2057;50.858;6.572;2022-07-29T03:18:35;10.90;;;2.50;;
4084;SDS011;2057;50.858;6.572;2022-07-29T03:21:02;17.20;;;3.20;;
4084;SDS011;2057;50.858;6.572;2022-07-29T03:23:27;26.03;;;3.60;;
4084;SDS011;2057;50.858;6.572;2022-07-29T03:25:53;9.67;;;3.13;;
4084;SDS011;2057;50.858;6.572;2022-07-29T03:28:20;18.93;;;3.13;;
4084;SDS011;2057;50.858;6.572;2022-07-29T03:30:46;23.83;;;3.17;;
4084;SDS011;2057;50.858;6.572;2022-07-29T03:33:11;17.50;;;3.80;;
4084;SDS011;2057;50.858;6.572;2022-07-29T03:35:37;25.93;;;4.17;;
4084;SDS011;2057;50.858;6.572;2022-07-29T03:38:03;17.27;;;3.37;;
4084;SDS011;2057;50.858;6.572;2022-07-29T03:40:33;16.70;;;2.80;;
4084;SDS011;2057;50.858;6.572;2022-07-29T03:43:03;16.30;;;3.57;;
4084;SDS011;2057;50.858;6.572;2022-07-29T03:45:30;15.93;;;3.23;;
4084;SDS011;2057;50.858;6.572;2022-07-29T03:48:02;7.60;;;2.80;;
4084;SDS011;2057;50.858;6.572;2022-07-29T03:50:35;26.93;;;3.30;;
4084;SDS011;2057;50.858;6.572;2022-07-29T03:53:01;10.47;;;3.27;;
4084;SDS011;2057;50.858;6.572;2022-07-29T03:55:28;11.33;;;3.10;;
4084;SDS011;2057;50.858;6.572;2022-07-29T03:57:57;5.87;;;2.63;;
4084;SDS011;2057;50.858;6.572;2022-07-29T04:00:24;9.57;;;2.93;;
4084;SDS011;2057;50.858;6.572;2022-07-29T04:02:50;11.63;;;2.70;;
4084;SDS011;2057;50.858;6.572;2022-07-29T04:05:16;7.90;;;3.10;;
4084;SDS011;2057;50.858;6.572;2022-07-29T04:07:45;7.73;;;2.83;;
4084;SDS011;2057;50.858;6.572;2022-07-29T04:10:11;13.63;;;2.87;;
4084;SDS011;2057;50.858;6.572;2022-07-29T04:12:36;14.53;;;2.10;;
4084;SDS011;2057;50.858;6.572;2022-07-29T04:15:03;6.10;;;3.17;;
4084;SDS011;2057;50.858;6.572;2022-07-29T04:17:29;13.77;;;3.07;;
4084;SDS011;2057;50.858;6.572;2022-07-29T04:19:54;14.57;;;2.90;;
4084;SDS011;2057;50.858;6.572;2022-07-29T04:22:20;10.43;;;2.83;;
4084;SDS011;2057;50.858;6.572;2022-07-29T04:24:45;6.33;;;3.00;;
4084;SDS011;2057;50.858;6.572;2022-07-29T04:27:11;11.40;;;3.23;;
4084;SDS011;2057;50.858;6.572;2022-07-29T04:29:36;9.30;;;2.80;;
4084;SDS011;2057;50.858;6.572;2022-07-29T04:32:01;9.30;;;2.77;;
4084;SDS011;2057;50.858;6.572;2022-07-29T04:34:27;10.17;;;3.00;;
4084;SDS011;2057;50.858;6.572;2022-07-29T04:36:52;11.60;;;3.13;;
4084;SDS011;2057;50.858;6.572;2022-07-29T04:39:18;15.33;;;3.80;;
4084;SDS011;2057;50.858;6.572;2022-07-29T04:41:43;11.73;;;3.63;;
4084;SDS011;2057;50.858;6.572;2022-07-29T04:44:09;21.23;;;3.20;;
4084;SDS011;2057;50.858;6.572;2022-07-29T04:46:35;8.40;;;3.00;;
4084;SDS011;2057;50.858;6.572;2022-07-29T04:49:00;7.80;;;2.97;;
4084;SDS011;2057;50.858;6.572;2022-07-29T04:51:26;11.83;;;2.97;;
4084;SDS011;2057;50.858;6.572;2022-07-29T04:53:51;6.93;;;2.70;;
4084;SDS011;2057;50.858;6.572;2022-07-29T04:56:17;10.63;;;3.23;;
4084;SDS011;2057;50.858;6.572;2022-07-29T04:58:42;10.13;;;3.10;;
4084;SDS011;2057;50.858;6.572;2022-07-29T05:01:07;10.30;;;3.00;;
4084;SDS011;2057;50.858;6.572;2022-07-29T05:03:33;10.47;;;3.10;;
4084;SDS011;2057;50.858;6.572;2022-07-29T05:05:58;12.93;;;3.20;;
4084;SDS011;2057;50.858;6.572;2022-07-29T05:08:23;16.37;;;3.50;;
4084;SDS011;2057;50.858;6.572;2022-07-29T05:10:49;7.70;;;3.67;;
4084;SDS011;2057;50.858;6.572;2022-07-29T05:13:14;5.20;;;2.70;;
4084;SDS011;2057;50.858;6.572;2022-07-29T05:15:41;6.93;;;3.00;;
4084;SDS011;2057;50.858;6.572;2022-07-29T05:18:06;15.03;;;3.00;;
4084;SDS011;2057;50.858;6.572;2022-07-29T05:20:31;30.97;;;4.30;;
4084;SDS011;2057;50.858;6.572;2022-07-29T05:22:58;7.60;;;3.00;;
4084;SDS011;2057;50.858;6.572;2022-07-29T05:25:27;10.80;;;2.97;;
4084;SDS011;2057;50.858;6.572;2022-07-29T05:27:53;15.10;;;2.97;;
4084;SDS011;2057;50.858;6.572;2022-07-29T05:30:19;14.73;;;2.47;;
4084;SDS011;2057;50.858;6.572;2022-07-29T05:32:45;12.63;;;3.53;;
4084;SDS011;2057;50.858;6.572;2022-07-29T05:35:11;10.90;;;2.57;;
4084;SDS011;2057;50.858;6.572;2022-07-29T05:37:38;15.80;;;3.93;;
4084;SDS011;2057;50.858;6.572;2022-07-29T05:40:04;5.70;;;2.60;;
4084;SDS011;2057;50.858;6.572;2022-07-29T05:42:30;26.50;;;3.00;;
4084;SDS011;2057;50.858;6.572;2022-07-29T05:44:55;6.20;;;2.70;;
4084;SDS011;2057;50.858;6.572;2022-07-29T05:47:21;9.87;;;3.40;;
4084;SDS011;2057;50.858;6.572;2022-07-29T05:49:47;17.10;;;3.30;;
4084;SDS011;2057;50.858;6.572;2022-07-29T05:52:13;8.70;;;2.50;;
4084;SDS011;2057;50.858;6.572;2022-07-29T05:54:39;8.13;;;2.67;;
4084;SDS011;2057;50.858;6.572;2022-07-29T05:57:04;8.43;;;3.23;;
4084;SDS011;2057;50.858;6.572;2022-07-29T05:59:30;21.87;;;3.37;;
4084;SDS011;2057;50.858;6.572;2022-07-29T06:01:56;8.53;;;3.20;;
4084;SDS011;2057;50.858;6.572;2022-07-29T06:04:22;19.17;;;3.60;;
4084;SDS011;2057;50.858;6.572;2022-07-29T06:06:48;20.10;;;4.60;;
4084;SDS011;2057;50.858;6.572;2022-07-29T06:09:13;26.83;;;4.83;;
4084;SDS011;2057;50.858;6.572;2022-07-29T06:11:38;22.67;;;4.30;;
4084;SDS011;2057;50.858;6.572;2022-07-29T06:14:04;12.90;;;3.67;;
4084;SDS011;2057;50.858;6.572;2022-07-29T06:16:29;14.03;;;3.60;;
4084;SDS011;2057;50.858;6.572;2022-07-29T06:18:55;9.43;;;3.43;;
4084;SDS011;2057;50.858;6.572;2022-07-29T06:21:20;6.73;;;3.10;;
4084;SDS011;2057;50.858;6.572;2022-07-29T06:23:46;16.60;;;3.00;;
4084;SDS011;2057;50.858;6.572;2022-07-29T06:26:11;16.30;;;3.90;;
4084;SDS011;2057;50.858;6.572;2022-07-29T06:28:37;9.77;;;3.60;;
4084;SDS011;2057;50.858;6.572;2022-07-29T06:31:02;12.77;;;2.97;;
4084;SDS011;2057;50.858;6.572;2022-07-29T06:33:28;10.57;;;3.43;;
4084;SDS011;2057;50.858;6.572;2022-07-29T06:35:53;8.53;;;3.73;;
4084;SDS011;2057;50.858;6.572;2022-07-29T06:38:19;16.40;;;3.40;;
4084;SDS011;2057;50.858;6.572;2022-07-29T06:40:45;10.67;;;3.90;;
4084;SDS011;2057;50.858;6.572;2022-07-29T06:43:31;8.97;;;4.00;;
4084;SDS011;2057;50.858;6.572;2022-07-29T06:46:06;14.00;;;3.20;;
4084;SDS011;2057;50.858;6.572;2022-07-29T06:48:34;13.00;;;4.13;;
4084;SDS011;2057;50.858;6.572;2022-07-29T06:51:01;9.67;;;3.93;;
4084;SDS011;2057;50.858;6.572;2022-07-29T06:53:28;12.87;;;3.83;;
4084;SDS011;2057;50.858;6.572;2022-07-29T06:55:53;12.67;;;4.43;;
4084;SDS011;2057;50.858;6.572;2022-07-29T06:58:19;6.33;;;3.33;;
4084;SDS011;2057;50.858;6.572;2022-07-29T07:00:46;13.53;;;3.50;;
4084;SDS011;2057;50.858;6.572;2022-07-29T07:03:12;9.33;;;3.30;;
4084;SDS011;2057;50.858;6.572;2022-07-29T07:05:37;16.90;;;5.57;;
4084;SDS011;2057;50.858;6.572;2022-07-29T07:08:03;18.53;;;4.40;;
4084;SDS011;2057;50.858;6.572;2022-07-29T07:10:30;13.23;;;4.27;;
4084;SDS011;2057;50.858;6.572;2022-07-29T07:12:55;16.60;;;5.17;;
4084;SDS011;2057;50.858;6.572;2022-07-29T07:15:20;9.03;;;4.40;;
4084;SDS011;2057;50.858;6.572;2022-07-29T07:17:47;12.90;;;5.10;;
4084;SDS011;2057;50.858;6.572;2022-07-29T07:20:14;17.37;;;4.20;;
4084;SDS011;2057;50.858;6.572;2022-07-29T07:22:40;8.83;;;3.70;;
4084;SDS011;2057;50.858;6.572;2022-07-29T07:25:06;16.17;;;4.60;;
4084;SDS011;2057;50.858;6.572;2022-07-29T07:27:32;13.13;;;3.20;;
4084;SDS011;2057;50.858;6.572;2022-07-29T07:29:57;18.57;;;3.93;;
4084;SDS011;2057;50.858;6.572;2022-07-29T07:32:22;25.03;;;5.23;;
4084;SDS011;2057;50.858;6.572;2022-07-29T07:34:48;13.97;;;4.93;;
4084;SDS011;2057;50.858;6.572;2022-07-29T07:37:13;13.83;;;4.00;;
4084;SDS011;2057;50.858;6.572;2022-07-29T07:39:39;21.93;;;4.57;;
4084;SDS011;2057;50.858;6.572;2022-07-29T07:42:06;8.33;;;4.37;;
4084;SDS011;2057;50.858;6.572;2022-07-29T07:44:31;19.53;;;5.60;;
4084;SDS011;2057;50.858;6.572;2022-07-29T07:46:57;27.00;;;5.77;;
4084;SDS011;2057;50.858;6.572;2022-07-29T07:49:22;13.07;;;4.50;;
4084;SDS011;2057;50.858;6.572;2022-07-29T07:51:48;12.03;;;4.70;;
4084;SDS011;2057;50.858;6.572;2022-07-29T07:54:14;9.40;;;4.80;;
4084;SDS011;2057;50.858;6.572;2022-07-29T07:56:39;19.47;;;4.53;;
4084;SDS011;2057;50.858;6.572;2022-07-29T07:59:04;10.97;;;5.30;;
4084;SDS011;2057;50.858;6.572;2022-07-29T08:01:30;12.63;;;4.70;;
4084;SDS011;2057;50.858;6.572;2022-07-29T08:03:55;15.13;;;4.27;;
4084;SDS011;2057;50.858;6.572;2022-07-29T08:06:20;15.57;;;5.30;;
4084;SDS011;2057;50.858;6.572;2022-07-29T08:08:46;17.53;;;5.20;;
4084;SDS011;2057;50.858;6.572;2022-07-29T08:11:11;9.83;;;4.67;;
4084;SDS011;2057;50.858;6.572;2022-07-29T08:13:37;14.73;;;4.73;;
4084;SDS011;2057;50.858;6.572;2022-07-29T08:16:03;11.07;;;5.30;;
4084;SDS011;2057;50.858;6.572;2022-07-29T08:18:38;9.27;;;4.53;;
4084;SDS011;2057;50.858;6.572;2022-07-29T08:21:05;20.13;;;5.03;;
4084;SDS011;2057;50.858;6.572;2022-07-29T08:23:30;19.17;;;4.97;;
4084;SDS011;2057;50.858;6.572;2022-07-29T08:26:03;17.53;;;5.60;;
4084;SDS011;2057;50.858;6.572;2022-07-29T08:28:35;11.73;;;4.20;;
4084;SDS011;2057;50.858;6.572;2022-07-29T08:31:04;22.90;;;4.80;;
4084;SDS011;2057;50.858;6.572;2022-07-29T08:33:30;18.90;;;5.17;;
4084;SDS011;2057;50.858;6.572;2022-07-29T08:35:55;16.30;;;4.30;;
4084;SDS011;2057;50.858;6.572;2022-07-29T08:38:21;20.97;;;4.63;;
4084;SDS011;2057;50.858;6.572;2022-07-29T08:40:46;12.53;;;4.60;;
4084;SDS011;2057;50.858;6.572;2022-07-29T08:43:12;11.83;;;4.40;;
4084;SDS011;2057;50.858;6.572;2022-07-29T08:45:42;10.50;;;4.33;;
4084;SDS011;2057;50.858;6.572;2022-07-29T08:48:11;12.30;;;4.70;;
4084;SDS011;2057;50.858;6.572;2022-07-29T08:50:37;21.43;;;4.90;;
4084;SDS011;2057;50.858;6.572;2022-07-29T08:53:04;14.27;;;4.50;;
4084;SDS011;2057;50.858;6.572;2022-07-29T08:55:32;9.40;;;4.60;;
4084;SDS011;2057;50.858;6.572;2022-07-29T08:57:58;11.87;;;4.70;;
4084;SDS011;2057;50.858;6.572;2022-07-29T09:00:24;20.93;;;4.37;;
4084;SDS011;2057;50.858;6.572;2022-07-29T09:02:51;14.47;;;5.03;;
4084;SDS011;2057;50.858;6.572;2022-07-29T09:05:22;16.07;;;5.37;;
4084;SDS011;2057;50.858;6.572;2022-07-29T09:07:50;18.17;;;5.13;;
4084;SDS011;2057;50.858;6.572;2022-07-29T09:10:16;14.43;;;4.50;;
4084;SDS011;2057;50.858;6.572;2022-07-29T09:12:41;21.20;;;4.30;;
4084;SDS011;2057;50.858;6.572;2022-07-29T09:15:07;6.90;;;3.57;;
4084;SDS011;2057;50.858;6.572;2022-07-29T09:17:39;17.60;;;4.30;;
4084;SDS011;2057;50.858;6.572;2022-07-29T09:20:10;10.70;;;3.90;;
4084;SDS011;2057;50.858;6.572;2022-07-29T09:22:37;14.00;;;4.27;;
4084;SDS011;2057;50.858;6.572;2022-07-29T09:25:02;15.53;;;3.73;;
4084;SDS011;2057;50.858;6.572;2022-07-29T09:27:28;12.70;;;4.10;;
4084;SDS011;2057;50.858;6.572;2022-07-29T09:32:23;14.50;;;3.97;;
4084;SDS011;2057;50.858;6.572;2022-07-29T09:34:49;5.67;;;3.53;;
4084;SDS011;2057;50.858;6.572;2022-07-29T09:37:27;14.33;;;4.20;;
4084;SDS011;2057;50.858;6.572;2022-07-29T09:39:53;7.80;;;4.37;;
4084;SDS011;2057;50.858;6.572;2022-07-29T09:42:27;9.77;;;4.27;;
4084;SDS011;2057;50.858;6.572;2022-07-29T09:44:54;12.97;;;4.80;;
4084;SDS011;2057;50.858;6.572;2022-07-29T09:47:19;9.53;;;3.83;;
4084;SDS011;2057;50.858;6.572;2022-07-29T09:49:50;8.57;;;4.10;;
4084;SDS011;2057;50.858;6.572;2022-07-29T09:52:20;14.27;;;4.43;;
4084;SDS011;2057;50.858;6.572;2022-07-29T09:54:46;13.77;;;4.67;;
4084;SDS011;2057;50.858;6.572;2022-07-29T09:57:22;15.43;;;3.93;;
4084;SDS011;2057;50.858;6.572;2022-07-29T09:59:56;13.80;;;4.40;;
4084;SDS011;2057;50.858;6.572;2022-07-29T10:02:22;15.80;;;4.53;;
4084;SDS011;2057;50.858;6.572;2022-07-29T10:04:47;16.33;;;4.27;;
4084;SDS011;2057;50.858;6.572;2022-07-29T10:07:13;22.50;;;5.53;;
4084;SDS011;2057;50.858;6.572;2022-07-29T10:09:38;20.00;;;4.70;;
4084;SDS011;2057;50.858;6.572;2022-07-29T10:12:05;32.77;;;4.67;;
4084;SDS011;2057;50.858;6.572;2022-07-29T10:14:39;22.20;;;6.30;;
4084;SDS011;2057;50.858;6.572;2022-07-29T10:17:06;20.97;;;4.90;;
4084;SDS011;2057;50.858;6.572;2022-07-29T10:19:32;20.13;;;4.53;;
4084;SDS011;2057;50.858;6.572;2022-07-29T10:21:58;18.30;;;4.20;;
4084;SDS011;2057;50.858;6.572;2022-07-29T10:24:26;20.43;;;4.97;;
4084;SDS011;2057;50.858;6.572;2022-07-29T10:26:54;12.50;;;4.37;;
4084;SDS011;2057;50.858;6.572;2022-07-29T10:29:24;15.10;;;4.23;;
4084;SDS011;2057;50.858;6.572;2022-07-29T10:31:57;12.10;;;4.00;;
4084;SDS011;2057;50.858;6.572;2022-07-29T10:40:00;8.17;;;3.40;;
4084;SDS011;2057;50.858;6.572;2022-07-29T10:42:59;11.23;;;3.70;;
4084;SDS011;2057;50.858;6.572;2022-07-29T10:45:39;11.80;;;3.33;;
4084;SDS011;2057;50.858;6.572;2022-07-29T10:48:05;10.50;;;3.13;;
4084;SDS011;2057;50.858;6.572;2022-07-29T10:53:19;13.10;;;3.27;;
4084;SDS011;2057;50.858;6.572;2022-07-29T10:55:44;10.10;;;4.17;;
4084;SDS011;2057;50.858;6.572;2022-07-29T10:58:19;13.30;;;3.87;;
4084;SDS011;2057;50.858;6.572;2022-07-29T11:00:47;16.33;;;5.73;;
4084;SDS011;2057;50.858;6.572;2022-07-29T11:06:10;9.97;;;5.10;;
4084;SDS011;2057;50.858;6.572;2022-07-29T11:08:35;11.60;;;5.17;;
4084;SDS011;2057;50.858;6.572;2022-07-29T11:13:49;20.20;;;5.30;;
4084;SDS011;2057;50.858;6.572;2022-07-29T11:16:15;9.83;;;4.90;;
4084;SDS011;2057;50.858;6.572;2022-07-29T11:21:35;8.83;;;4.97;;
4084;SDS011;2057;50.858;6.572;2022-07-29T11:24:15;11.57;;;5.03;;
4084;SDS011;2057;50.858;6.572;2022-07-29T11:29:38;7.80;;;3.80;;
4084;SDS011;2057;50.858;6.572;2022-07-29T11:32:21;15.23;;;4.90;;
4084;SDS011;2057;50.858;6.572;2022-07-29T11:34:49;12.37;;;4.90;;
4084;SDS011;2057;50.858;6.572;2022-07-29T11:37:40;22.90;;;5.20;;
4084;SDS011;2057;50.858;6.572;2022-07-29T11:45:01;13.03;;;4.70;;
4084;SDS011;2057;50.858;6.572;2022-07-29T11:47:36;18.20;;;5.47;;
4084;SDS011;2057;50.858;6.572;2022-07-29T11:50:04;11.70;;;4.13;;
4084;SDS011;2057;50.858;6.572;2022-07-29T11:52:41;17.10;;;5.23;;
4084;SDS011;2057;50.858;6.572;2022-07-29T11:55:09;16.83;;;5.53;;
4084;SDS011;2057;50.858;6.572;2022-07-29T11:57:37;14.57;;;4.43;;
4084;SDS011;2057;50.858;6.572;2022-07-29T12:00:04;18.30;;;4.80;;
4084;SDS011;2057;50.858;6.572;2022-07-29T12:02:39;12.93;;;4.37;;
4084;SDS011;2057;50.858;6.572;2022-07-29T12:05:07;8.30;;;4.73;;
4084;SDS011;2057;50.858;6.572;2022-07-29T12:07:33;6.60;;;4.20;;
4084;SDS011;2057;50.858;6.572;2022-07-29T12:09:59;12.33;;;5.17;;
4084;SDS011;2057;50.858;6.572;2022-07-29T12:12:25;7.03;;;4.00;;
4084;SDS011;2057;50.858;6.572;2022-07-29T12:14:50;8.30;;;5.20;;
4084;SDS011;2057;50.858;6.572;2022-07-29T12:17:29;13.10;;;4.27;;
4084;SDS011;2057;50.858;6.572;2022-07-29T12:19:59;7.27;;;3.73;;
4084;SDS011;2057;50.858;6.572;2022-07-29T12:25:00;7.37;;;3.60;;
4084;SDS011;2057;50.858;6.572;2022-07-29T12:27:28;15.47;;;4.33;;
4084;SDS011;2057;50.858;6.572;2022-07-29T12:29:55;11.27;;;4.43;;
4084;SDS011;2057;50.858;6.572;2022-07-29T12:32:47;7.17;;;3.77;;
4084;SDS011;2057;50.858;6.572;2022-07-29T12:35:22;18.77;;;6.27;;
4084;SDS011;2057;50.858;6.572;2022-07-29T12:37:47;17.03;;;5.70;;
4084;SDS011;2057;50.858;6.572;2022-07-29T12:40:15;23.27;;;7.03;;
4084;SDS011;2057;50.858;6.572;2022-07-29T12:42:42;11.53;;;4.07;;
4084;SDS011;2057;50.858;6.572;2022-07-29T12:45:30;12.50;;;4.50;;
4084;SDS011;2057;50.858;6.572;2022-07-29T12:47:56;9.63;;;4.97;;
4084;SDS011;2057;50.858;6.572;2022-07-29T12:50:21;11.30;;;5.63;;
4084;SDS011;2057;50.858;6.572;2022-07-29T12:52:47;5.93;;;4.70;;
4084;SDS011;2057;50.858;6.572;2022-07-29T12:55:13;8.17;;;6.20;;
4084;SDS011;2057;50.858;6.572;2022-07-29T12:57:46;12.93;;;5.80;;
4084;SDS011;2057;50.858;6.572;2022-07-29T13:00:13;12.20;;;5.17;;
4084;SDS011;2057;50.858;6.572;2022-07-29T13:02:40;9.37;;;5.97;;
4084;SDS011;2057;50.858;6.572;2022-07-29T13:05:08;7.63;;;5.00;;
4084;SDS011;2057;50.858;6.572;2022-07-29T13:07:34;10.80;;;4.73;;
4084;SDS011;2057;50.858;6.572;2022-07-29T13:10:20;19.03;;;6.30;;
4084;SDS011;2057;50.858;6.572;2022-07-29T13:13:05;13.43;;;4.97;;
4084;SDS011;2057;50.858;6.572;2022-07-29T13:15:34;11.93;;;4.87;;
4084;SDS011;2057;50.858;6.572;2022-07-29T13:18:01;6.97;;;4.50;;
4084;SDS011;2057;50.858;6.572;2022-07-29T13:20:28;12.77;;;4.43;;
4084;SDS011;2057;50.858;6.572;2022-07-29T13:22:57;12.60;;;5.57;;
4084;SDS011;2057;50.858;6.572;2022-07-29T13:25:25;9.57;;;4.50;;
4084;SDS011;2057;50.858;6.572;2022-07-29T13:27:55;20.83;;;5.80;;
4084;SDS011;2057;50.858;6.572;2022-07-29T13:30:21;10.70;;;4.80;;
4084;SDS011;2057;50.858;6.572;2022-07-29T13:32:47;10.90;;;3.20;;
4084;SDS011;2057;50.858;6.572;2022-07-29T13:35:13;7.97;;;3.00;;
4084;SDS011;2057;50.858;6.572;2022-07-29T13:37:39;10.43;;;3.53;;
4084;SDS011;2057;50.858;6.572;2022-07-29T13:40:07;9.60;;;3.20;;
4084;SDS011;2057;50.858;6.572;2022-07-29T13:42:34;21.40;;;4.03;;
4084;SDS011;2057;50.858;6.572;2022-07-29T13:44:59;6.93;;;3.00;;
4084;SDS011;2057;50.858;6.572;2022-07-29T13:47:26;5.17;;;2.53;;
4084;SDS011;2057;50.858;6.572;2022-07-29T13:49:52;10.50;;;3.20;;
4084;SDS011;2057;50.858;6.572;2022-07-29T13:52:18;11.23;;;3.40;;
4084;SDS011;2057;50.858;6.572;2022-07-29T13:54:44;4.90;;;2.60;;
4084;SDS011;2057;50.858;6.572;2022-07-29T13:57:10;11.60;;;2.83;;
4084;SDS011;2057;50.858;6.572;2022-07-29T13:59:36;6.33;;;2.83;;
4084;SDS011;2057;50.858;6.572;2022-07-29T14:02:01;8.97;;;2.90;;
4084;SDS011;2057;50.858;6.572;2022-07-29T14:04:27;5.20;;;3.10;;
4084;SDS011;2057;50.858;6.572;2022-07-29T14:06:52;6.80;;;3.27;;
4084;SDS011;2057;50.858;6.572;2022-07-29T14:09:18;16.43;;;3.33;;
4084;SDS011;2057;50.858;6.572;2022-07-29T14:11:43;9.70;;;3.00;;
4084;SDS011;2057;50.858;6.572;2022-07-29T14:14:10;6.07;;;2.90;;
4084;SDS011;2057;50.858;6.572;2022-07-29T14:16:36;7.37;;;2.80;;
4084;SDS011;2057;50.858;6.572;2022-07-29T14:19:01;7.77;;;3.10;;
4084;SDS011;2057;50.858;6.572;2022-07-29T14:21:27;11.80;;;3.70;;
4084;SDS011;2057;50.858;6.572;2022-07-29T14:23:53;8.03;;;3.30;;
4084;SDS011;2057;50.858;6.572;2022-07-29T14:26:19;4.97;;;2.83;;
4084;SDS011;2057;50.858;6.572;2022-07-29T14:28:45;7.17;;;2.83;;
4084;SDS011;2057;50.858;6.572;2022-07-29T14:31:10;7.50;;;3.10;;
4084;SDS011;2057;50.858;6.572;2022-07-29T14:33:36;8.27;;;2.50;;
4084;SDS011;2057;50.858;6.572;2022-07-29T14:36:01;6.33;;;3.03;;
4084;SDS011;2057;50.858;6.572;2022-07-29T14:38:26;8.50;;;2.80;;
4084;SDS011;2057;50.858;6.572;2022-07-29T14:40:52;5.13;;;2.30;;
4084;SDS011;2057;50.858;6.572;2022-07-29T14:43:17;6.40;;;3.23;;
4084;SDS011;2057;50.858;6.572;2022-07-29T14:45:43;3.23;;;1.80;;
4084;SDS011;2057;50.858;6.572;2022-07-29T14:48:08;15.73;;;2.70;;
4084;SDS011;2057;50.858;6.572;2022-07-29T14:50:34;4.33;;;2.43;;
4084;SDS011;2057;50.858;6.572;2022-07-29T14:53:00;4.80;;;2.30;;
4084;SDS011;2057;50.858;6.572;2022-07-29T14:55:25;10.03;;;2.50;;
4084;SDS011;2057;50.858;6.572;2022-07-29T14:57:52;4.07;;;2.00;;
4084;SDS011;2057;50.858;6.572;2022-07-29T15:00:18;9.33;;;2.67;;
4084;SDS011;2057;50.858;6.572;2022-07-29T15:02:44;12.50;;;2.70;;
4084;SDS011;2057;50.858;6.572;2022-07-29T15:05:09;11.20;;;2.70;;
4084;SDS011;2057;50.858;6.572;2022-07-29T15:07:35;6.37;;;2.47;;
4084;SDS011;2057;50.858;6.572;2022-07-29T15:10:00;10.67;;;2.20;;
4084;SDS011;2057;50.858;6.572;2022-07-29T15:12:25;9.90;;;2.50;;
4084;SDS011;2057;50.858;6.572;2022-07-29T15:14:51;8.60;;;2.50;;
4084;SDS011;2057;50.858;6.572;2022-07-29T15:17:16;12.20;;;3.10;;
4084;SDS011;2057;50.858;6.572;2022-07-29T15:19:42;5.40;;;2.60;;
4084;SDS011;2057;50.858;6.572;2022-07-29T15:22:07;6.40;;;2.93;;
4084;SDS011;2057;50.858;6.572;2022-07-29T15:24:32;4.07;;;2.43;;
4084;SDS011;2057;50.858;6.572;2022-07-29T15:26:58;10.73;;;2.53;;
4084;SDS011;2057;50.858;6.572;2022-07-29T15:29:23;12.77;;;2.60;;
4084;SDS011;2057;50.858;6.572;2022-07-29T15:31:49;10.80;;;2.47;;
4084;SDS011;2057;50.858;6.572;2022-07-29T15:34:14;7.83;;;1.97;;
4084;SDS011;2057;50.858;6.572;2022-07-29T15:36:40;4.50;;;2.43;;
4084;SDS011;2057;50.858;6.572;2022-07-29T15:39:06;3.27;;;2.23;;
4084;SDS011;2057;50.858;6.572;2022-07-29T15:41:32;4.50;;;2.07;;
4084;SDS011;2057;50.858;6.572;2022-07-29T15:43:58;70.67;;;6.57;;
4084;SDS011;2057;50.858;6.572;2022-07-29T15:46:24;18.63;;;2.60;;
4084;SDS011;2057;50.858;6.572;2022-07-29T15:49:07;8.13;;;2.90;;